Time;durP1;ratioP1;P1;durP2;ratioP2;P2;SDS_P1;SDS_P2;PMS_P1;PMS_P2;Temp;Humidity;BMP_temperature;BMP_pressure;BME280_temperature;BME280_humidity;BME280_pressure;Samples;Min_cycle;Max_cycle;Signal;HPM_P1;HPM_P2
2024/04/19 00:01:54;;;;;;;5.20;2.55;;;;;;;;;;5398782;26;20413;-72
2024/04/19 00:04:20;;;;;;;4.80;2.75;;;;;;;;;;5411371;26;19996;-72
2024/04/19 00:06:45;;;;;;;4.82;2.50;;;;;;;;;;5408873;26;19999;-72
2024/04/19 00:09:10;;;;;;;5.60;2.72;;;;;;;;;;5404145;26;20004;-72
2024/04/19 00:11:35;;;;;;;5.55;2.60;;;;;;;;;;5397329;26;20012;-72
2024/04/19 00:14:00;;;;;;;6.07;3.03;;;;;;;;;;5413469;26;20014;-72
2024/04/19 00:16:26;;;;;;;6.78;3.08;;;;;;;;;;5410445;26;20000;-72
2024/04/19 00:18:51;;;;;;;5.00;3.58;;;;;;;;;;5408061;26;19988;-72
2024/04/19 00:21:16;;;;;;;4.63;2.65;;;;;;;;;;5405094;26;19992;-72
2024/04/19 00:23:41;;;;;;;6.47;2.80;;;;;;;;;;5399470;26;20000;-72
2024/04/19 00:26:06;;;;;;;5.70;2.45;;;;;;;;;;5399569;26;20011;-72
2024/04/19 00:28:35;;;;;;;10.50;4.20;;;;;;;;;;5407856;26;20004;-72
2024/04/19 00:31:01;;;;;;;5.00;2.90;;;;;;;;;;5410650;26;19999;-72
2024/04/19 00:33:26;;;;;;;4.55;2.47;;;;;;;;;;5408875;26;20048;-72
2024/04/19 00:35:52;;;;;;;5.05;2.88;;;;;;;;;;5404328;26;20439;-72
2024/04/19 00:38:17;;;;;;;4.63;2.80;;;;;;;;;;5400296;26;20000;-71
2024/04/19 00:40:42;;;;;;;4.93;2.63;;;;;;;;;;5402241;26;20000;-72
2024/04/19 00:43:07;;;;;;;5.38;2.50;;;;;;;;;;5412134;26;20076;-71
2024/04/19 00:45:34;;;;;;;5.32;2.75;;;;;;;;;;5407108;26;20436;-72
2024/04/19 00:48:00;;;;;;;6.45;3.10;;;;;;;;;;5407186;26;20008;-71
2024/04/19 00:50:48;;;;;;;5.32;2.72;;;;;;;;;;5401503;26;20415;-72
2024/04/19 00:53:19;;;;;;;4.85;3.22;;;;;;;;;;5406005;26;20029;-72
2024/04/19 00:55:44;;;;;;;5.28;2.83;;;;;;;;;;5404116;26;20879;-72
2024/04/19 00:58:09;;;;;;;6.05;2.90;;;;;;;;;;5411127;26;20126;-72
2024/04/19 01:00:34;;;;;;;6.18;2.75;;;;;;;;;;5406254;26;19999;-72
2024/04/19 01:03:00;;;;;;;4.45;2.63;;;;;;;;;;5403359;26;20073;-72
2024/04/19 01:05:25;;;;;;;4.80;2.60;;;;;;;;;;5396958;26;20008;-72
2024/04/19 01:07:51;;;;;;;5.28;1.95;;;;;;;;;;5397824;26;20015;-72
2024/04/19 01:10:17;;;;;;;5.35;2.53;;;;;;;;;;5406145;26;20015;-72
2024/04/19 01:12:42;;;;;;;5.13;2.50;;;;;;;;;;5410527;26;20443;-72
2024/04/19 01:15:14;;;;;;;4.95;3.05;;;;;;;;;;5407565;26;19999;-72
2024/04/19 01:17:39;;;;;;;6.95;2.80;;;;;;;;;;5400782;26;20391;-72
2024/04/19 01:20:05;;;;;;;5.93;2.83;;;;;;;;;;5401278;26;20003;-72
2024/04/19 01:22:33;;;;;;;4.38;2.65;;;;;;;;;;5392574;26;20102;-72
2024/04/19 01:24:59;;;;;;;5.55;2.42;;;;;;;;;;5394160;26;20012;-72
2024/04/19 01:27:24;;;;;;;5.18;2.97;;;;;;;;;;5399763;26;20011;-72
2024/04/19 01:29:49;;;;;;;5.82;2.80;;;;;;;;;;5406313;26;20018;-72
2024/04/19 01:32:15;;;;;;;5.47;2.50;;;;;;;;;;5403661;26;20018;-72
2024/04/19 01:34:40;;;;;;;6.05;2.45;;;;;;;;;;5399488;26;20056;-72
2024/04/19 01:37:05;;;;;;;5.53;2.15;;;;;;;;;;5406462;26;20004;-73
2024/04/19 01:39:30;;;;;;;6.05;2.83;;;;;;;;;;5401531;26;20000;-72
2024/04/19 01:41:56;;;;;;;5.82;2.50;;;;;;;;;;5400368;26;20004;-72
2024/04/19 01:44:21;;;;;;;4.85;2.75;;;;;;;;;;5406639;26;20007;-72
2024/04/19 01:46:46;;;;;;;5.10;2.85;;;;;;;;;;5402710;26;20591;-72
2024/04/19 01:49:11;;;;;;;6.00;2.97;;;;;;;;;;5398706;26;20353;-72
2024/04/19 01:51:36;;;;;;;4.15;2.55;;;;;;;;;;5407251;26;20473;-72
2024/04/19 01:54:02;;;;;;;5.03;2.40;;;;;;;;;;5409673;26;20018;-72
2024/04/19 01:56:27;;;;;;;4.97;2.40;;;;;;;;;;5408267;26;20018;-72
2024/04/19 01:58:52;;;;;;;5.97;3.13;;;;;;;;;;5403724;26;20011;-71
2024/04/19 02:01:17;;;;;;;4.05;2.35;;;;;;;;;;5400007;26;20166;-71
2024/04/19 02:03:42;;;;;;;6.53;3.00;;;;;;;;;;5402422;26;20484;-72
2024/04/19 02:06:08;;;;;;;6.95;2.92;;;;;;;;;;5411395;26;20018;-72
2024/04/19 02:08:33;;;;;;;6.28;2.90;;;;;;;;;;5409083;26;19999;-72
2024/04/19 02:11:02;;;;;;;4.55;2.72;;;;;;;;;;5404094;26;20035;-72
2024/04/19 02:13:27;;;;;;;5.18;3.22;;;;;;;;;;5403594;26;20004;-72
2024/04/19 02:15:53;;;;;;;4.65;2.80;;;;;;;;;;5398945;26;20018;-72
2024/04/19 02:18:18;;;;;;;5.10;2.63;;;;;;;;;;5409387;26;20018;-72
2024/04/19 02:20:43;;;;;;;4.22;2.40;;;;;;;;;;5408132;26;20000;-72
2024/04/19 02:23:08;;;;;;;6.97;3.10;;;;;;;;;;5409114;26;20000;-72
2024/04/19 02:25:33;;;;;;;5.35;2.53;;;;;;;;;;5406754;26;20019;-72
2024/04/19 02:30:52;;;;;;;7.40;2.72;;;;;;;;;;5403323;26;20000;-71
2024/04/19 02:33:18;;;;;;;5.68;2.50;;;;;;;;;;5410906;26;20010;-72
2024/04/19 02:35:43;;;;;;;6.47;2.65;;;;;;;;;;5410200;26;20027;-71
2024/04/19 02:38:08;;;;;;;4.85;3.00;;;;;;;;;;5406756;26;20076;-72
2024/04/19 02:40:33;;;;;;;5.18;2.60;;;;;;;;;;5403972;26;20049;-72
2024/04/19 02:42:58;;;;;;;4.95;2.60;;;;;;;;;;5401396;26;20101;-72
2024/04/19 02:45:24;;;;;;;6.03;2.53;;;;;;;;;;5398292;26;20015;-72
2024/04/19 02:47:49;;;;;;;5.53;2.60;;;;;;;;;;5412297;26;19997;-72
2024/04/19 02:50:14;;;;;;;6.45;2.70;;;;;;;;;;5411762;26;20027;-73
2024/04/19 02:52:39;;;;;;;6.10;2.30;;;;;;;;;;5405709;26;20000;-72
2024/04/19 02:55:05;;;;;;;6.13;2.65;;;;;;;;;;5406561;26;20483;-71
2024/04/19 02:57:30;;;;;;;4.30;2.47;;;;;;;;;;5399262;26;20014;-72
2024/04/19 02:59:55;;;;;;;6.95;2.55;;;;;;;;;;5401683;26;19996;-72
2024/04/19 03:02:20;;;;;;;6.10;2.38;;;;;;;;;;5413831;26;20014;-72
2024/04/19 03:04:46;;;;;;;5.65;2.25;;;;;;;;;;5412409;26;20007;-72
2024/04/19 03:07:11;;;;;;;5.70;2.85;;;;;;;;;;5410307;26;20464;-72
2024/04/19 03:09:36;;;;;;;6.93;3.00;;;;;;;;;;5399173;26;19996;-73
2024/04/19 03:12:01;;;;;;;3.90;2.20;;;;;;;;;;5395474;26;20006;-72
2024/04/19 03:14:26;;;;;;;4.80;2.85;;;;;;;;;;5393843;26;20018;-72
2024/04/19 03:16:52;;;;;;;7.53;2.78;;;;;;;;;;5404509;26;20004;-72
2024/04/19 03:19:37;;;;;;;5.20;2.28;;;;;;;;;;5388458;26;20007;-72
2024/04/19 03:22:02;;;;;;;4.85;2.60;;;;;;;;;;5400004;26;19999;-72
2024/04/19 03:24:27;;;;;;;5.55;2.17;;;;;;;;;;5399875;26;20015;-72
2024/04/19 03:26:53;;;;;;;6.45;2.55;;;;;;;;;;5385863;26;20019;-72
2024/04/19 03:29:18;;;;;;;3.65;1.98;;;;;;;;;;5413241;26;20347;-72
2024/04/19 03:31:43;;;;;;;4.45;2.20;;;;;;;;;;5399011;26;20053;-72
2024/04/19 03:34:08;;;;;;;6.30;2.75;;;;;;;;;;5411443;26;20000;-72
2024/04/19 03:36:33;;;;;;;5.15;2.30;;;;;;;;;;5395931;26;20000;-71
2024/04/19 03:38:59;;;;;;;7.43;2.90;;;;;;;;;;5391063;26;20000;-71
2024/04/19 03:41:24;;;;;;;4.88;2.42;;;;;;;;;;5392896;26;20052;-71
2024/04/19 03:46:33;;;;;;;5.45;2.40;;;;;;;;;;5395997;26;20007;-71
2024/04/19 03:48:58;;;;;;;6.18;2.45;;;;;;;;;;5408128;26;20043;-71
2024/04/19 03:51:24;;;;;;;4.82;1.98;;;;;;;;;;5389508;26;20007;-72
2024/04/19 03:53:49;;;;;;;3.80;1.92;;;;;;;;;;5385052;26;20004;-71
2024/04/19 03:56:14;;;;;;;5.35;2.25;;;;;;;;;;5405431;26;20000;-71
2024/04/19 03:58:39;;;;;;;4.88;2.13;;;;;;;;;;5395902;26;20000;-71
2024/04/19 04:01:07;;;;;;;4.43;1.85;;;;;;;;;;5397150;26;20011;-70
2024/04/19 04:03:33;;;;;;;7.85;2.08;;;;;;;;;;5404671;26;20010;-70
2024/04/19 04:05:58;;;;;;;3.67;1.95;;;;;;;;;;5384645;26;20003;-71
2024/04/19 04:08:23;;;;;;;9.07;2.65;;;;;;;;;;5386933;26;20465;-71
2024/04/19 04:10:48;;;;;;;7.05;2.53;;;;;;;;;;5404169;26;20359;-71
2024/04/19 04:13:14;;;;;;;6.55;2.10;;;;;;;;;;5402371;26;20014;-70
2024/04/19 04:15:40;;;;;;;6.53;2.42;;;;;;;;;;5393457;26;20016;-71
2024/04/19 04:18:05;;;;;;;5.68;2.35;;;;;;;;;;5392752;26;20032;-71
2024/04/19 04:20:31;;;;;;;4.85;1.85;;;;;;;;;;5382800;26;20011;-71
2024/04/19 04:22:56;;;;;;;7.20;2.03;;;;;;;;;;5395951;26;20011;-71
2024/04/19 04:25:21;;;;;;;6.13;1.90;;;;;;;;;;5392669;26;20011;-71
2024/04/19 04:27:46;;;;;;;11.68;5.50;;;;;;;;;;5398298;26;19996;-71
2024/04/19 04:30:12;;;;;;;3.92;1.95;;;;;;;;;;5387785;26;20032;-71
2024/04/19 04:32:37;;;;;;;4.47;2.00;;;;;;;;;;5398753;26;20004;-72
2024/04/19 04:35:03;;;;;;;3.45;2.00;;;;;;;;;;5389266;26;20504;-71
2024/04/19 04:37:28;;;;;;;6.90;2.72;;;;;;;;;;5398490;26;20513;-71
2024/04/19 04:39:54;;;;;;;5.38;1.90;;;;;;;;;;5401363;26;19999;-71
2024/04/19 04:42:19;;;;;;;5.28;1.55;;;;;;;;;;5405540;26;20015;-72
2024/04/19 04:44:44;;;;;;;4.20;1.95;;;;;;;;;;5412765;26;19992;-71
2024/04/19 04:47:10;;;;;;;7.63;1.67;;;;;;;;;;5413728;26;20384;-71
2024/04/19 04:49:35;;;;;;;5.45;1.70;;;;;;;;;;5412921;26;20014;-71
2024/04/19 04:52:00;;;;;;;5.30;2.10;;;;;;;;;;5412008;26;20367;-71
2024/04/19 04:54:26;;;;;;;5.70;1.65;;;;;;;;;;5408148;26;19995;-71
2024/04/19 04:56:51;;;;;;;4.97;1.40;;;;;;;;;;5400092;26;20003;-71
2024/04/19 04:59:16;;;;;;;5.85;1.70;;;;;;;;;;5403218;26;19995;-71
2024/04/19 05:01:41;;;;;;;4.30;1.75;;;;;;;;;;5399745;26;20340;-71
2024/04/19 05:04:08;;;;;;;4.20;1.85;;;;;;;;;;5405063;26;20352;-71
2024/04/19 05:06:33;;;;;;;6.43;2.70;;;;;;;;;;5407081;26;19995;-71
2024/04/19 05:08:58;;;;;;;5.80;2.50;;;;;;;;;;5408830;26;20005;-71
2024/04/19 05:11:23;;;;;;;4.93;1.85;;;;;;;;;;5398692;26;20003;-71
2024/04/19 05:13:48;;;;;;;4.30;1.77;;;;;;;;;;5398432;26;20443;-71
2024/04/19 05:16:14;;;;;;;10.02;2.65;;;;;;;;;;5397054;26;20003;-71
2024/04/19 05:18:39;;;;;;;4.53;1.92;;;;;;;;;;5397988;26;19999;-71
2024/04/19 05:21:04;;;;;;;5.63;2.22;;;;;;;;;;5388224;26;20008;-71
2024/04/19 05:23:29;;;;;;;5.80;1.95;;;;;;;;;;5401458;26;20509;-71
2024/04/19 05:25:54;;;;;;;5.38;1.85;;;;;;;;;;5404299;26;20019;-71
2024/04/19 05:28:21;;;;;;;4.70;2.03;;;;;;;;;;5397772;26;20011;-71
2024/04/19 05:30:47;;;;;;;4.93;2.00;;;;;;;;;;5396750;26;20364;-71
2024/04/19 05:33:12;;;;;;;4.40;1.73;;;;;;;;;;5405209;26;20000;-71
2024/04/19 05:35:37;;;;;;;4.75;1.70;;;;;;;;;;5409388;26;20027;-71
2024/04/19 05:38:02;;;;;;;5.38;2.30;;;;;;;;;;5410582;26;19999;-71
2024/04/19 05:40:28;;;;;;;4.93;2.80;;;;;;;;;;5407037;26;19999;-71
2024/04/19 05:42:53;;;;;;;5.22;2.05;;;;;;;;;;5409407;26;20007;-71
2024/04/19 05:45:19;;;;;;;4.82;2.28;;;;;;;;;;5397857;26;20010;-71
2024/04/19 05:47:44;;;;;;;7.85;4.18;;;;;;;;;;5404777;26;20011;-71
2024/04/19 05:50:10;;;;;;;5.70;2.70;;;;;;;;;;5410085;26;19999;-71
2024/04/19 05:52:35;;;;;;;5.63;2.67;;;;;;;;;;5404850;26;20007;-71
2024/04/19 05:55:00;;;;;;;4.93;2.65;;;;;;;;;;5403909;26;20073;-71
2024/04/19 05:57:25;;;;;;;3.67;1.98;;;;;;;;;;5401632;26;20048;-71
2024/04/19 05:59:51;;;;;;;3.83;2.08;;;;;;;;;;5404020;26;20101;-71
2024/04/19 06:02:17;;;;;;;5.45;2.38;;;;;;;;;;5403539;26;20011;-71
2024/04/19 06:04:42;;;;;;;5.28;2.30;;;;;;;;;;5402475;26;20017;-71
2024/04/19 06:07:07;;;;;;;5.10;2.35;;;;;;;;;;5409128;26;20003;-71
2024/04/19 06:09:32;;;;;;;6.55;2.85;;;;;;;;;;5399789;26;20461;-71
2024/04/19 06:12:01;;;;;;;5.10;2.38;;;;;;;;;;5384875;26;20079;-71
2024/04/19 06:14:26;;;;;;;8.30;3.05;;;;;;;;;;5393950;26;20019;-71
2024/04/19 06:16:51;;;;;;;5.05;2.58;;;;;;;;;;5396741;26;20451;-72
2024/04/19 06:19:16;;;;;;;6.90;2.65;;;;;;;;;;5392144;26;19997;-72
2024/04/19 06:21:42;;;;;;;5.50;2.78;;;;;;;;;;5393081;26;19996;-72
2024/04/19 06:24:07;;;;;;;6.13;2.78;;;;;;;;;;5395993;26;20028;-72
2024/04/19 06:26:32;;;;;;;7.10;2.50;;;;;;;;;;5398799;26;20004;-72
2024/04/19 06:28:57;;;;;;;5.93;3.13;;;;;;;;;;5412488;26;20007;-72
2024/04/19 06:31:23;;;;;;;5.55;3.22;;;;;;;;;;5414761;26;20018;-72
2024/04/19 06:33:48;;;;;;;7.60;3.08;;;;;;;;;;5415204;26;20003;-71
2024/04/19 06:36:13;;;;;;;8.48;3.53;;;;;;;;;;5415211;26;20014;-72
2024/04/19 06:38:38;;;;;;;6.15;3.20;;;;;;;;;;5412761;26;19999;-72
2024/04/19 06:41:04;;;;;;;4.63;2.85;;;;;;;;;;5409213;26;20054;-72
2024/04/19 06:43:29;;;;;;;5.85;3.40;;;;;;;;;;5413806;26;20039;-72
2024/04/19 06:45:58;;;;;;;8.20;3.40;;;;;;;;;;5414068;26;20004;-72
2024/04/19 06:48:23;;;;;;;6.68;3.30;;;;;;;;;;5412788;26;20047;-72
2024/04/19 06:50:48;;;;;;;8.48;3.67;;;;;;;;;;5411454;26;19996;-71
2024/04/19 06:53:14;;;;;;;9.05;3.25;;;;;;;;;;5405768;26;20467;-72
2024/04/19 06:55:39;;;;;;;7.78;3.70;;;;;;;;;;5409342;26;20332;-71
2024/04/19 06:58:04;;;;;;;8.98;4.15;;;;;;;;;;5414911;26;19996;-72
2024/04/19 07:00:29;;;;;;;7.68;4.00;;;;;;;;;;5407861;26;20470;-72
2024/04/19 07:02:54;;;;;;;6.57;4.05;;;;;;;;;;5414399;26;20010;-72
2024/04/19 07:05:20;;;;;;;6.82;4.32;;;;;;;;;;5412083;26;19995;-72
2024/04/19 07:07:48;;;;;;;6.03;3.95;;;;;;;;;;5410568;26;19995;-72
2024/04/19 07:10:13;;;;;;;6.70;3.88;;;;;;;;;;5410812;26;20658;-72
2024/04/19 07:12:39;;;;;;;8.48;4.25;;;;;;;;;;5413346;26;20003;-72
2024/04/19 07:15:04;;;;;;;9.75;4.38;;;;;;;;;;5414792;26;20382;-72
2024/04/19 07:17:29;;;;;;;6.18;3.92;;;;;;;;;;5414894;26;20014;-72
2024/04/19 07:19:56;;;;;;;5.97;3.30;;;;;;;;;;5412524;26;19999;-72
2024/04/19 07:22:22;;;;;;;4.75;2.63;;;;;;;;;;5410564;26;20023;-72
2024/04/19 07:24:47;;;;;;;8.73;2.45;;;;;;;;;;5409619;26;20003;-73
2024/04/19 07:27:13;;;;;;;3.58;2.15;;;;;;;;;;5414499;26;20003;-73
2024/04/19 07:29:39;;;;;;;4.22;2.85;;;;;;;;;;5414786;26;20037;-72
2024/04/19 07:32:04;;;;;;;5.97;2.55;;;;;;;;;;5414467;26;20011;-72
2024/04/19 07:34:29;;;;;;;7.45;3.13;;;;;;;;;;5390694;26;20044;-72
2024/04/19 07:36:54;;;;;;;4.57;2.70;;;;;;;;;;5393510;26;20010;-72
2024/04/19 07:39:20;;;;;;;5.75;3.03;;;;;;;;;;5397985;26;20117;-72
2024/04/19 07:41:45;;;;;;;5.97;3.00;;;;;;;;;;5398180;26;19996;-73
2024/04/19 07:44:10;;;;;;;5.88;2.53;;;;;;;;;;5401069;26;20073;-72
2024/04/19 07:46:35;;;;;;;5.68;3.63;;;;;;;;;;5400367;26;20105;-72
2024/04/19 07:49:01;;;;;;;5.95;3.42;;;;;;;;;;5399425;26;20072;-73
2024/04/19 07:51:26;;;;;;;6.22;3.13;;;;;;;;;;5401868;26;20072;-72
2024/04/19 07:53:51;;;;;;;6.65;3.20;;;;;;;;;;5406144;26;20015;-73
2024/04/19 07:56:16;;;;;;;5.10;3.05;;;;;;;;;;5408616;26;19995;-72
2024/04/19 07:58:43;;;;;;;7.05;3.15;;;;;;;;;;5396976;26;20012;-72
2024/04/19 08:01:08;;;;;;;4.55;2.78;;;;;;;;;;5409957;26;20064;-73
2024/04/19 08:03:35;;;;;;;5.05;2.90;;;;;;;;;;5401586;26;20449;-72
2024/04/19 08:06:00;;;;;;;6.03;3.28;;;;;;;;;;5393727;26;20004;-72
2024/04/19 08:08:25;;;;;;;6.40;2.40;;;;;;;;;;5405836;26;20004;-72
2024/04/19 08:10:51;;;;;;;6.88;3.05;;;;;;;;;;5394856;26;20326;-72
2024/04/19 08:13:16;;;;;;;7.07;3.00;;;;;;;;;;5409577;26;19995;-73
2024/04/19 08:15:41;;;;;;;5.85;2.88;;;;;;;;;;5399603;26;19996;-72
2024/04/19 08:18:07;;;;;;;6.07;3.00;;;;;;;;;;5402254;26;20366;-72
2024/04/19 08:20:32;;;;;;;6.53;2.97;;;;;;;;;;5407612;26;20007;-72
2024/04/19 08:22:57;;;;;;;5.45;2.63;;;;;;;;;;5412165;26;20006;-72
2024/04/19 08:25:22;;;;;;;5.25;3.00;;;;;;;;;;5409223;26;20068;-72
2024/04/19 08:27:47;;;;;;;3.90;2.55;;;;;;;;;;5398248;26;19996;-72
2024/04/19 08:30:13;;;;;;;5.50;3.00;;;;;;;;;;5403835;26;20003;-72
2024/04/19 08:32:39;;;;;;;7.55;2.95;;;;;;;;;;5412901;26;20006;-72
2024/04/19 08:35:04;;;;;;;5.18;2.78;;;;;;;;;;5413394;26;20073;-72
2024/04/19 08:37:31;;;;;;;5.28;3.28;;;;;;;;;;5405872;26;19995;-72
2024/04/19 08:39:56;;;;;;;4.05;2.40;;;;;;;;;;5406031;26;20449;-72
2024/04/19 08:42:23;;;;;;;4.50;2.90;;;;;;;;;;5404763;26;20145;-72
2024/04/19 08:44:49;;;;;;;5.70;2.60;;;;;;;;;;5403890;26;20373;-73
2024/04/19 08:47:16;;;;;;;4.50;2.50;;;;;;;;;;5406619;26;20007;-73
2024/04/19 08:49:43;;;;;;;5.63;2.35;;;;;;;;;;5411088;26;20008;-73
2024/04/19 08:52:08;;;;;;;5.70;2.50;;;;;;;;;;5409244;26;20006;-72
2024/04/19 08:54:34;;;;;;;7.13;2.83;;;;;;;;;;5407458;26;20328;-72
2024/04/19 08:56:59;;;;;;;7.05;2.72;;;;;;;;;;5404806;26;19999;-72
2024/04/19 08:59:25;;;;;;;3.95;2.35;;;;;;;;;;5399528;26;20068;-72
2024/04/19 09:01:50;;;;;;;5.03;3.00;;;;;;;;;;5402908;26;20000;-73
2024/04/19 09:04:15;;;;;;;4.55;2.33;;;;;;;;;;5412573;26;19999;-73
2024/04/19 09:06:42;;;;;;;5.32;2.58;;;;;;;;;;5406044;26;20006;-72
2024/04/19 09:09:07;;;;;;;4.63;2.50;;;;;;;;;;5406188;26;20011;-72
2024/04/19 09:11:37;;;;;;;4.28;2.42;;;;;;;;;;5400553;26;20355;-73
2024/04/19 09:14:02;;;;;;;3.90;2.45;;;;;;;;;;5400196;26;20352;-72
2024/04/19 09:16:29;;;;;;;5.70;2.63;;;;;;;;;;5406814;26;19999;-72
2024/04/19 09:18:56;;;;;;;3.78;2.17;;;;;;;;;;5404951;26;20008;-72
2024/04/19 09:21:21;;;;;;;6.88;4.13;;;;;;;;;;5409017;26;20316;-72
2024/04/19 09:23:47;;;;;;;5.88;2.72;;;;;;;;;;5401106;26;20007;-72
2024/04/19 09:26:12;;;;;;;4.13;2.35;;;;;;;;;;5403137;26;19992;-72
2024/04/19 09:28:37;;;;;;;4.40;2.30;;;;;;;;;;5404286;26;20000;-72
2024/04/19 09:31:04;;;;;;;4.65;2.38;;;;;;;;;;5412558;26;19992;-73
2024/04/19 09:33:29;;;;;;;3.40;2.00;;;;;;;;;;5412092;26;19999;-72
2024/04/19 09:35:56;;;;;;;4.28;2.83;;;;;;;;;;5403710;26;19999;-72
2024/04/19 09:38:21;;;;;;;5.45;2.00;;;;;;;;;;5401486;26;20336;-72
2024/04/19 09:40:47;;;;;;;4.65;2.13;;;;;;;;;;5396873;26;20034;-73
2024/04/19 09:43:20;;;;;;;3.13;2.28;;;;;;;;;;5396415;26;20018;-73
2024/04/19 09:45:48;;;;;;;3.65;1.70;;;;;;;;;;5399212;26;20011;-73
2024/04/19 09:48:16;;;;;;;3.70;1.60;;;;;;;;;;5405139;26;20011;-72
2024/04/19 09:50:51;;;;;;;3.47;1.90;;;;;;;;;;5406557;26;19996;-72
2024/04/19 09:53:19;;;;;;;3.13;1.42;;;;;;;;;;5403650;26;20011;-72
2024/04/19 09:56:05;;;;;;;3.40;1.48;;;;;;;;;;5401634;26;20004;-73
2024/04/19 09:58:31;;;;;;;3.42;1.50;;;;;;;;;;5399462;26;20015;-73
2024/04/19 10:00:58;;;;;;;3.08;1.30;;;;;;;;;;5396757;26;20004;-73
2024/04/19 10:03:24;;;;;;;3.20;1.70;;;;;;;;;;5404414;26;19999;-72
2024/04/19 10:05:50;;;;;;;2.38;1.45;;;;;;;;;;5393896;26;20004;-73
2024/04/19 10:08:15;;;;;;;3.00;1.38;;;;;;;;;;5400470;26;20028;-72
2024/04/19 10:10:41;;;;;;;2.47;1.30;;;;;;;;;;5392347;26;20072;-73
2024/04/19 10:13:06;;;;;;;2.90;1.70;;;;;;;;;;5411013;26;20348;-73
2024/04/19 10:15:32;;;;;;;3.40;1.50;;;;;;;;;;5408102;26;19999;-73
2024/04/19 10:18:00;;;;;;;2.42;1.50;;;;;;;;;;5403524;26;20015;-72
2024/04/19 10:20:27;;;;;;;3.90;1.20;;;;;;;;;;5402240;26;20068;-72
2024/04/19 10:22:53;;;;;;;2.58;1.30;;;;;;;;;;5402259;26;20050;-72
2024/04/19 10:25:24;;;;;;;2.15;1.20;;;;;;;;;;5398711;26;19999;-72
2024/04/19 10:27:50;;;;;;;2.90;1.33;;;;;;;;;;5408725;26;20004;-72
2024/04/19 10:30:16;;;;;;;2.72;1.48;;;;;;;;;;5407595;26;20325;-73
2024/04/19 10:32:42;;;;;;;2.80;1.20;;;;;;;;;;5405082;26;20003;-72
2024/04/19 10:35:11;;;;;;;2.55;1.15;;;;;;;;;;5395874;26;19996;-72
2024/04/19 10:37:36;;;;;;;2.95;0.98;;;;;;;;;;5398733;26;20018;-72
2024/04/19 10:40:04;;;;;;;1.80;1.10;;;;;;;;;;5410021;26;20456;-73
2024/04/19 10:42:30;;;;;;;2.10;1.02;;;;;;;;;;5409343;26;20529;-73
2024/04/19 10:44:55;;;;;;;3.40;1.52;;;;;;;;;;5408717;26;20019;-73
2024/04/19 10:47:21;;;;;;;3.95;1.10;;;;;;;;;;5408002;26;20011;-72
2024/04/19 10:49:46;;;;;;;2.67;1.15;;;;;;;;;;5396243;26;20008;-73
2024/04/19 10:52:11;;;;;;;4.78;1.63;;;;;;;;;;5397973;26;20007;-73
2024/04/19 10:54:37;;;;;;;3.03;1.40;;;;;;;;;;5400738;26;19992;-73
2024/04/19 10:57:02;;;;;;;3.70;1.52;;;;;;;;;;5406905;26;20373;-73
2024/04/19 10:59:27;;;;;;;4.57;1.75;;;;;;;;;;5405615;26;20000;-73
2024/04/19 11:01:57;;;;;;;3.30;1.70;;;;;;;;;;5398769;26;20008;-73
2024/04/19 11:04:23;;;;;;;2.08;1.05;;;;;;;;;;5400289;26;20027;-73
2024/04/19 11:06:48;;;;;;;1.98;1.10;;;;;;;;;;5400667;26;20007;-73
2024/04/19 11:09:15;;;;;;;3.53;1.30;;;;;;;;;;5413430;26;20006;-73
2024/04/19 11:11:42;;;;;;;3.47;1.70;;;;;;;;;;5408092;26;20053;-72
2024/04/19 11:14:08;;;;;;;2.75;1.23;;;;;;;;;;5403655;26;19995;-73
2024/04/19 11:16:33;;;;;;;2.47;1.17;;;;;;;;;;5402415;26;20000;-73
2024/04/19 11:18:58;;;;;;;3.88;1.50;;;;;;;;;;5406863;26;20330;-73
2024/04/19 11:21:24;;;;;;;2.45;1.20;;;;;;;;;;5408185;26;20336;-73
2024/04/19 11:23:50;;;;;;;2.63;1.13;;;;;;;;;;5410853;26;19999;-73
2024/04/19 11:26:18;;;;;;;2.45;1.23;;;;;;;;;;5409860;26;19995;-73
2024/04/19 11:28:45;;;;;;;2.13;0.85;;;;;;;;;;5406767;26;20010;-73
2024/04/19 11:31:11;;;;;;;1.33;0.73;;;;;;;;;;5404862;26;20007;-74
2024/04/19 11:33:36;;;;;;;2.38;0.90;;;;;;;;;;5403650;26;20000;-74
2024/04/19 11:36:06;;;;;;;1.88;0.80;;;;;;;;;;5411811;26;20008;-74
2024/04/19 11:38:32;;;;;;;2.17;0.80;;;;;;;;;;5411494;26;20004;-74
2024/04/19 11:40:57;;;;;;;3.38;0.68;;;;;;;;;;5405836;26;20008;-75
2024/04/19 11:43:22;;;;;;;1.42;0.43;;;;;;;;;;5406190;26;20015;-75
2024/04/19 11:45:47;;;;;;;1.20;0.52;;;;;;;;;;5397998;26;20496;-75
2024/04/19 11:48:18;;;;;;;1.70;0.38;;;;;;;;;;5408396;26;20076;-74
2024/04/19 11:50:43;;;;;;;1.42;0.50;;;;;;;;;;5413095;26;20627;-75
2024/04/19 11:53:08;;;;;;;0.63;0.30;;;;;;;;;;5407952;26;20022;-75
2024/04/19 11:55:34;;;;;;;0.65;0.32;;;;;;;;;;5406209;26;19992;-74
2024/04/19 11:58:00;;;;;;;0.68;0.40;;;;;;;;;;5408145;26;20344;-74
2024/04/19 12:00:25;;;;;;;0.90;0.50;;;;;;;;;;5401040;26;20040;-75
2024/04/19 12:02:51;;;;;;;0.73;0.30;;;;;;;;;;5401980;26;20449;-75
2024/04/19 12:05:16;;;;;;;1.65;0.70;;;;;;;;;;5411888;26;20500;-74
2024/04/19 12:07:42;;;;;;;2.70;0.40;;;;;;;;;;5412669;26;20007;-75
2024/04/19 12:10:07;;;;;;;1.65;0.50;;;;;;;;;;5406547;26;20722;-75
2024/04/19 12:12:32;;;;;;;2.13;0.80;;;;;;;;;;5401769;26;19995;-74
2024/04/19 12:14:57;;;;;;;1.15;0.40;;;;;;;;;;5398728;26;20351;-75
2024/04/19 12:17:23;;;;;;;1.15;0.57;;;;;;;;;;5407223;26;20358;-74
2024/04/19 12:19:48;;;;;;;1.77;0.40;;;;;;;;;;5406874;26;20348;-75
2024/04/19 12:22:15;;;;;;;0.80;0.40;;;;;;;;;;5408773;26;20094;-74
2024/04/19 12:24:40;;;;;;;1.70;0.30;;;;;;;;;;5402050;26;20022;-74
2024/04/19 12:27:06;;;;;;;0.50;0.25;;;;;;;;;;5402397;26;20481;-75
2024/04/19 12:29:31;;;;;;;0.57;0.20;;;;;;;;;;5408371;26;20437;-74
2024/04/19 12:31:57;;;;;;;1.58;0.30;;;;;;;;;;5403079;26;19995;-75
2024/04/19 12:34:22;;;;;;;0.32;0.10;;;;;;;;;;5412112;26;20018;-75
2024/04/19 12:36:48;;;;;;;2.05;0.47;;;;;;;;;;5404034;26;20004;-75
2024/04/19 12:39:13;;;;;;;0.60;0.20;;;;;;;;;;5414619;26;20343;-74
2024/04/19 12:41:38;;;;;;;0.80;0.20;;;;;;;;;;5397956;26;20012;-74
2024/04/19 12:44:04;;;;;;;0.73;0.20;;;;;;;;;;5398649;26;20014;-74
2024/04/19 12:46:29;;;;;;;0.85;0.20;;;;;;;;;;5411873;26;20479;-75
2024/04/19 12:49:15;;;;;;;2.08;0.30;;;;;;;;;;5409267;26;19996;-75
2024/04/19 12:51:40;;;;;;;0.32;0.10;;;;;;;;;;5403287;26;20017;-74
2024/04/19 12:54:05;;;;;;;0.63;0.20;;;;;;;;;;5384329;26;20246;-74
2024/04/19 12:56:31;;;;;;;0.65;0.20;;;;;;;;;;5386165;26;20015;-75
2024/04/19 12:58:56;;;;;;;0.43;0.20;;;;;;;;;;5396305;26;20004;-75
2024/04/19 13:01:21;;;;;;;0.80;0.30;;;;;;;;;;5392896;26;20049;-74
2024/04/19 13:03:46;;;;;;;0.68;0.30;;;;;;;;;;5395020;26;20426;-74
2024/04/19 13:06:12;;;;;;;0.77;0.30;;;;;;;;;;5391053;26;20628;-74
2024/04/19 13:08:37;;;;;;;0.45;0.28;;;;;;;;;;5399699;26;20444;-74
2024/04/19 13:11:02;;;;;;;0.35;0.20;;;;;;;;;;5393573;26;20365;-75
2024/04/19 13:13:32;;;;;;;1.05;0.35;;;;;;;;;;5388272;26;19996;-74
2024/04/19 13:15:58;;;;;;;0.20;0.20;;;;;;;;;;5393543;26;20345;-74
2024/04/19 13:18:23;;;;;;;0.85;0.38;;;;;;;;;;5395932;26;20002;-74
2024/04/19 13:20:48;;;;;;;0.35;0.20;;;;;;;;;;5386200;26;20078;-74
2024/04/19 13:23:13;;;;;;;0.60;0.30;;;;;;;;;;5399682;26;19995;-75
2024/04/19 13:25:38;;;;;;;9.23;4.15;;;;;;;;;;5397392;26;20031;-75
2024/04/19 13:28:04;;;;;;;1.27;0.43;;;;;;;;;;5405844;26;20011;-74
2024/04/19 13:30:29;;;;;;;0.88;0.35;;;;;;;;;;5408372;26;20000;-74
2024/04/19 13:32:54;;;;;;;1.30;0.40;;;;;;;;;;5406788;26;19996;-74
2024/04/19 13:35:20;;;;;;;1.23;0.52;;;;;;;;;;5403038;26;20004;-74
2024/04/19 13:37:45;;;;;;;1.95;0.40;;;;;;;;;;5401003;26;20018;-75
2024/04/19 13:40:10;;;;;;;0.77;0.30;;;;;;;;;;5412858;26;20794;-75
2024/04/19 13:42:35;;;;;;;3.05;0.60;;;;;;;;;;5402891;26;20092;-75
2024/04/19 13:45:00;;;;;;;1.10;0.50;;;;;;;;;;5396901;26;20015;-74
2024/04/19 13:47:26;;;;;;;0.95;0.45;;;;;;;;;;5403952;26;20005;-74
2024/04/19 13:49:51;;;;;;;0.73;0.40;;;;;;;;;;5400809;26;20004;-74
2024/04/19 13:52:16;;;;;;;0.52;0.30;;;;;;;;;;5403297;26;20016;-74
2024/04/19 13:54:41;;;;;;;0.70;0.40;;;;;;;;;;5404955;26;20883;-74
2024/04/19 13:57:07;;;;;;;1.23;0.50;;;;;;;;;;5390826;26;19999;-75
2024/04/19 13:59:32;;;;;;;0.80;0.40;;;;;;;;;;5393388;26;20010;-75
2024/04/19 14:01:57;;;;;;;16.58;9.00;;;;;;;;;;5388133;26;19995;-74
2024/04/19 14:04:22;;;;;;;3.15;1.42;;;;;;;;;;5390997;26;20735;-75
2024/04/19 14:06:48;;;;;;;3.53;0.93;;;;;;;;;;5384539;26;20581;-74
2024/04/19 14:09:13;;;;;;;1.00;0.60;;;;;;;;;;5403445;26;20010;-74
2024/04/19 14:11:39;;;;;;;0.73;0.43;;;;;;;;;;5387994;26;19996;-74
2024/04/19 14:14:04;;;;;;;0.90;0.50;;;;;;;;;;5390392;26;20048;-74
2024/04/19 14:16:30;;;;;;;0.95;0.60;;;;;;;;;;5382733;26;19996;-74
2024/04/19 14:18:55;;;;;;;1.23;0.50;;;;;;;;;;5388169;26;20000;-75
2024/04/19 14:21:20;;;;;;;0.75;0.40;;;;;;;;;;5384884;26;19999;-74
2024/04/19 14:23:47;;;;;;;1.42;0.47;;;;;;;;;;5396511;26;20445;-74
2024/04/19 14:26:16;;;;;;;2.15;0.50;;;;;;;;;;5394031;26;20036;-75
2024/04/19 14:28:43;;;;;;;0.80;0.52;;;;;;;;;;5391038;26;20000;-75
2024/04/19 14:31:08;;;;;;;3.17;0.60;;;;;;;;;;5395754;26;20524;-75
2024/04/19 14:33:33;;;;;;;0.90;0.55;;;;;;;;;;5392092;26;20016;-75
2024/04/19 14:36:02;;;;;;;1.70;0.40;;;;;;;;;;5386948;26;20074;-75
2024/04/19 14:38:27;;;;;;;1.00;0.50;;;;;;;;;;5396962;26;20004;-75
2024/04/19 14:40:52;;;;;;;0.77;0.50;;;;;;;;;;5387444;26;20468;-75